createdAt,value
2023-05-13T00:00:58.500Z,2.20
2023-05-13T00:03:28.768Z,1.97
2023-05-13T00:05:56.995Z,2.27
2023-05-13T00:08:24.884Z,2.17
2023-05-13T00:10:52.933Z,1.93
2023-05-13T00:13:20.768Z,1.93
2023-05-13T00:15:48.720Z,2.47
2023-05-13T00:18:16.820Z,1.80
2023-05-13T00:20:46.110Z,2.63
2023-05-13T00:23:14.574Z,1.50
2023-05-13T00:25:44.342Z,1.77
2023-05-13T00:28:14.074Z,1.50
2023-05-13T00:30:43.844Z,1.83
2023-05-13T00:33:11.918Z,1.93
2023-05-13T00:35:39.785Z,1.77
2023-05-13T00:38:09.251Z,1.50
2023-05-13T00:40:39.635Z,1.73
2023-05-13T00:43:07.790Z,1.70
2023-05-13T00:45:38.023Z,1.70
2023-05-13T00:48:07.682Z,2.10
2023-05-13T00:50:35.904Z,1.90
2023-05-13T00:53:05.022Z,1.60
2023-05-13T00:55:34.361Z,1.57
2023-05-13T00:58:02.371Z,1.63
2023-05-13T01:00:31.345Z,1.73
2023-05-13T01:03:10.356Z,1.80
2023-05-13T01:05:46.489Z,1.50
2023-05-13T01:08:22.697Z,1.70
2023-05-13T01:10:58.756Z,2.03
2023-05-13T01:13:29.814Z,1.80
2023-05-13T01:16:02.701Z,1.50
2023-05-13T01:18:35.086Z,2.00
2023-05-13T01:21:04.713Z,1.80
2023-05-13T01:23:33.987Z,1.63
2023-05-13T01:26:02.087Z,2.00
2023-05-13T01:28:30.233Z,1.80
2023-05-13T01:30:59.129Z,1.60
2023-05-13T01:33:27.630Z,1.70
2023-05-13T01:35:56.156Z,1.80
2023-05-13T01:38:25.617Z,1.80
2023-05-13T01:40:56.066Z,1.93
2023-05-13T01:43:23.974Z,1.60
2023-05-13T01:45:51.934Z,1.90
2023-05-13T01:48:19.887Z,1.70
2023-05-13T01:50:47.801Z,1.70
2023-05-13T01:53:15.847Z,1.70
2023-05-13T01:55:43.778Z,2.00
2023-05-13T01:58:12.986Z,1.80
2023-05-13T02:00:40.871Z,1.50
2023-05-13T02:03:08.754Z,2.17
2023-05-13T02:05:36.673Z,1.60
2023-05-13T02:08:04.635Z,2.33
2023-05-13T02:10:32.511Z,2.07
2023-05-13T02:13:00.328Z,1.60
2023-05-13T02:15:29.534Z,1.93
2023-05-13T02:17:57.453Z,1.80
2023-05-13T02:20:26.442Z,1.60
2023-05-13T02:22:54.372Z,1.70
2023-05-13T02:25:22.592Z,1.87
2023-05-13T02:27:51.307Z,2.10
2023-05-13T02:30:19.331Z,2.33
2023-05-13T02:32:48.845Z,1.90
2023-05-13T02:35:17.041Z,2.00
2023-05-13T02:37:44.884Z,1.90
2023-05-13T02:40:13.546Z,1.63
2023-05-13T02:42:41.546Z,1.73
2023-05-13T02:45:10.643Z,1.50
2023-05-13T02:47:39.365Z,2.17
2023-05-13T02:50:10.254Z,1.53
2023-05-13T02:52:39.095Z,2.10
2023-05-13T02:55:08.851Z,2.00
2023-05-13T02:57:37.824Z,2.00
2023-05-13T03:00:07.141Z,2.17
2023-05-13T03:02:36.071Z,2.13
2023-05-13T03:05:04.047Z,1.93
2023-05-13T03:07:33.255Z,2.17
2023-05-13T03:10:01.085Z,2.83
2023-05-13T03:12:29.030Z,2.17
2023-05-13T03:14:56.864Z,2.13
2023-05-13T03:17:25.470Z,2.20
2023-05-13T03:19:53.424Z,2.20
2023-05-13T03:22:21.301Z,3.07
2023-05-13T03:24:50.555Z,2.63
2023-05-13T03:27:18.595Z,2.20
2023-05-13T03:29:46.470Z,2.20
2023-05-13T03:32:14.339Z,2.23
2023-05-13T03:34:42.356Z,2.80
2023-05-13T03:37:10.237Z,1.60
2023-05-13T03:39:38.068Z,2.50
2023-05-13T03:42:08.165Z,2.87
2023-05-13T03:44:36.056Z,2.23
2023-05-13T03:47:04.069Z,2.60
2023-05-13T03:49:32.136Z,2.90
2023-05-13T03:52:00.051Z,2.77
2023-05-13T03:54:27.905Z,3.10
2023-05-13T03:56:55.846Z,3.23
2023-05-13T03:59:25.096Z,3.27
2023-05-13T04:01:53.056Z,2.30
2023-05-13T04:04:20.971Z,2.37
2023-05-13T04:06:48.817Z,2.93
2023-05-13T04:09:16.750Z,3.13
2023-05-13T04:11:44.756Z,3.10
2023-05-13T04:14:12.599Z,2.93
2023-05-13T04:16:41.897Z,2.77
2023-05-13T04:19:09.950Z,3.10
2023-05-13T04:21:37.796Z,3.13
2023-05-13T04:24:06.357Z,3.47
2023-05-13T04:26:34.251Z,3.57
2023-05-13T04:29:02.072Z,3.00
2023-05-13T04:31:30.532Z,3.47
2023-05-13T04:33:59.747Z,3.13
2023-05-13T04:36:27.785Z,3.97
2023-05-13T04:38:55.715Z,3.60
2023-05-13T04:41:23.651Z,3.30
2023-05-13T04:43:51.548Z,2.63
2023-05-13T04:46:19.447Z,2.97
2023-05-13T04:48:48.428Z,2.80
2023-05-13T04:51:18.341Z,2.87
2023-05-13T04:53:46.639Z,2.60
2023-05-13T04:56:14.529Z,2.57
2023-05-13T04:58:42.398Z,3.23
2023-05-13T05:01:10.445Z,3.27
2023-05-13T05:03:38.409Z,2.60
2023-05-13T05:06:06.564Z,2.67
2023-05-13T05:08:35.905Z,3.37
2023-05-13T05:11:03.749Z,3.30
2023-05-13T05:13:31.567Z,3.83
2023-05-13T05:15:59.620Z,3.37
2023-05-13T05:18:27.593Z,3.20
2023-05-13T05:20:55.672Z,3.40
2023-05-13T05:23:23.802Z,2.27
2023-05-13T05:26:00.850Z,2.80
2023-05-13T05:28:36.697Z,2.67
2023-05-13T05:31:05.388Z,2.90
2023-05-13T05:33:33.309Z,3.17
2023-05-13T05:36:01.215Z,3.00
2023-05-13T05:38:29.345Z,3.03
2023-05-13T05:40:58.620Z,3.57
2023-05-13T05:43:26.678Z,3.17
2023-05-13T05:45:54.599Z,3.07
2023-05-13T05:48:22.508Z,2.83
2023-05-13T05:50:50.527Z,2.50
2023-05-13T05:53:18.410Z,2.07
2023-05-13T05:55:46.347Z,2.37
2023-05-13T05:58:17.886Z,2.90
2023-05-13T06:00:45.792Z,2.70
2023-05-13T06:03:13.920Z,2.40
2023-05-13T06:05:41.993Z,2.73
2023-05-13T06:08:09.803Z,2.37
2023-05-13T06:10:38.591Z,2.70
2023-05-13T06:13:06.602Z,2.60
2023-05-13T06:15:36.151Z,2.40
2023-05-13T06:18:05.757Z,2.80
2023-05-13T06:20:33.924Z,2.90
2023-05-13T06:23:01.950Z,2.80
2023-05-13T06:25:29.911Z,2.87
2023-05-13T06:27:57.804Z,3.33
2023-05-13T06:30:25.802Z,3.47
2023-05-13T06:33:01.727Z,3.17
2023-05-13T06:35:30.514Z,3.17
2023-05-13T06:37:58.454Z,2.90
2023-05-13T06:40:26.309Z,3.50
2023-05-13T06:42:54.196Z,2.40
2023-05-13T06:45:23.601Z,2.60
2023-05-13T06:47:51.780Z,3.27
2023-05-13T06:50:21.488Z,2.43
2023-05-13T06:52:49.632Z,3.00
2023-05-13T06:55:18.996Z,3.20
2023-05-13T06:57:47.379Z,2.87
2023-05-13T07:00:16.157Z,2.23
2023-05-13T07:02:44.086Z,2.43
2023-05-13T07:05:12.669Z,2.40
2023-05-13T07:07:43.399Z,2.63
2023-05-13T07:10:12.076Z,3.03
2023-05-13T07:12:39.972Z,3.17
2023-05-13T07:15:08.889Z,3.07
2023-05-13T07:17:36.943Z,2.77
2023-05-13T07:20:05.310Z,2.40
2023-05-13T07:22:33.226Z,2.10
2023-05-13T07:25:02.593Z,2.93
2023-05-13T07:27:30.643Z,2.50
2023-05-13T07:29:58.979Z,2.37
2023-05-13T07:32:27.365Z,2.60
2023-05-13T07:34:55.376Z,3.23
2023-05-13T07:37:23.528Z,2.80
2023-05-13T07:39:51.527Z,2.77
2023-05-13T07:42:20.759Z,2.40
2023-05-13T07:44:48.636Z,2.43
2023-05-13T07:47:16.667Z,2.47
2023-05-13T07:49:44.563Z,3.10
2023-05-13T07:52:12.428Z,3.37
2023-05-13T07:54:40.518Z,3.27
2023-05-13T07:57:08.407Z,3.20
2023-05-13T07:59:37.725Z,3.73
2023-05-13T08:02:05.934Z,3.43
2023-05-13T08:04:33.775Z,4.70
2023-05-13T08:07:02.211Z,3.97
2023-05-13T08:09:30.254Z,4.43
2023-05-13T08:11:58.235Z,4.20
2023-05-13T08:14:26.115Z,4.70
2023-05-13T08:16:55.554Z,4.67
2023-05-13T08:19:23.529Z,3.83
2023-05-13T08:21:51.536Z,4.63
2023-05-13T08:24:19.461Z,4.50
2023-05-13T08:26:47.333Z,4.17
2023-05-13T08:29:15.868Z,3.47
2023-05-13T08:31:43.923Z,4.83
2023-05-13T08:34:13.971Z,4.20
2023-05-13T08:36:41.893Z,3.50
2023-05-13T08:39:09.833Z,3.93
2023-05-13T08:41:39.109Z,3.67
2023-05-13T08:44:08.189Z,4.37
2023-05-13T08:46:39.111Z,4.20
2023-05-13T08:49:07.029Z,3.90
2023-05-13T08:51:36.443Z,4.73
2023-05-13T08:54:05.002Z,4.37
2023-05-13T08:56:32.953Z,3.80
2023-05-13T08:59:00.910Z,4.27
2023-05-13T09:01:30.141Z,4.87
2023-05-13T09:04:00.176Z,3.93
2023-05-13T09:06:28.685Z,4.80
2023-05-13T09:08:58.480Z,4.90
2023-05-13T09:11:26.911Z,4.20
2023-05-13T09:13:59.707Z,4.27
2023-05-13T09:16:29.616Z,4.90
2023-05-13T09:19:00.018Z,4.73
2023-05-13T09:21:29.340Z,4.77
2023-05-13T09:24:08.477Z,4.43
2023-05-13T09:26:36.875Z,4.77
2023-05-13T09:29:24.532Z,4.50
2023-05-13T09:31:54.122Z,5.33
2023-05-13T09:34:30.197Z,4.60
2023-05-13T09:37:02.671Z,4.20
2023-05-13T09:39:33.967Z,4.70
2023-05-13T09:42:04.919Z,4.90
2023-05-13T09:44:33.580Z,5.00
2023-05-13T09:47:02.590Z,4.67
2023-05-13T09:49:32.597Z,4.47
2023-05-13T09:52:00.449Z,4.33
2023-05-13T09:54:37.320Z,4.53
2023-05-13T09:57:06.433Z,4.10
2023-05-13T09:59:34.448Z,3.80
2023-05-13T10:02:05.473Z,4.70
2023-05-13T10:04:33.595Z,4.80
2023-05-13T10:07:04.527Z,4.30
2023-05-13T10:09:37.575Z,4.13
2023-05-13T10:12:08.889Z,4.80
2023-05-13T10:14:38.116Z,5.40
2023-05-13T10:17:07.438Z,4.37
2023-05-13T10:19:35.900Z,3.90
2023-05-13T10:22:04.768Z,4.43
2023-05-13T10:24:33.649Z,4.00
2023-05-13T10:27:04.932Z,4.33
2023-05-13T10:29:33.160Z,4.30
2023-05-13T10:32:02.786Z,4.53
2023-05-13T10:34:34.380Z,4.83
2023-05-13T10:37:19.939Z,4.90
2023-05-13T10:40:13.150Z,4.30
2023-05-13T10:42:44.172Z,4.60
2023-05-13T10:45:12.533Z,4.20
2023-05-13T10:47:40.608Z,4.87
2023-05-13T10:50:23.327Z,3.80
2023-05-13T10:52:52.353Z,4.13
2023-05-13T10:55:21.885Z,4.80
2023-05-13T10:58:11.056Z,4.80
2023-05-13T11:00:40.301Z,4.97
2023-05-13T11:03:13.729Z,4.57
2023-05-13T11:05:42.970Z,5.20
2023-05-13T11:08:11.878Z,4.77
2023-05-13T11:10:42.106Z,4.80
2023-05-13T11:13:25.551Z,4.73
2023-05-13T11:15:54.964Z,4.10
2023-05-13T11:18:31.533Z,4.37
2023-05-13T11:21:05.533Z,4.40
2023-05-13T11:23:35.935Z,4.77
2023-05-13T11:26:17.051Z,4.47
2023-05-13T11:29:06.883Z,4.93
2023-05-13T11:31:45.664Z,3.97
2023-05-13T11:34:15.418Z,3.90
2023-05-13T11:36:45.910Z,4.13
2023-05-13T11:39:16.295Z,3.37
2023-05-13T11:41:46.673Z,3.40
2023-05-13T11:44:17.634Z,2.80
2023-05-13T11:46:56.846Z,3.03
2023-05-13T11:49:32.477Z,2.93
2023-05-13T11:52:00.901Z,3.33
2023-05-13T11:54:29.253Z,3.37
2023-05-13T11:56:57.260Z,3.10
2023-05-13T11:59:31.149Z,3.77
2023-05-13T12:02:04.400Z,4.70
2023-05-13T12:04:32.398Z,4.03
2023-05-13T12:07:00.314Z,3.47
2023-05-13T12:09:28.127Z,3.83
2023-05-13T12:11:56.490Z,4.03
2023-05-13T12:14:27.882Z,3.93
2023-05-13T12:16:56.632Z,3.60
2023-05-13T12:19:24.703Z,3.77
2023-05-13T12:21:54.431Z,3.53
2023-05-13T12:24:23.326Z,3.63
2023-05-13T12:26:51.350Z,4.07
2023-05-13T12:29:19.257Z,3.70
2023-05-13T12:32:07.433Z,4.37
2023-05-13T12:34:36.049Z,4.23
2023-05-13T12:37:13.985Z,3.60
2023-05-13T12:39:42.780Z,3.70
2023-05-13T12:42:17.465Z,3.77
2023-05-13T12:44:46.464Z,3.40
2023-05-13T12:47:19.965Z,4.03
2023-05-13T12:49:54.256Z,3.43
2023-05-13T12:52:22.788Z,3.90
2023-05-13T12:54:50.926Z,4.00
2023-05-13T12:57:19.086Z,4.20
2023-05-13T12:59:47.131Z,4.30
2023-05-13T13:02:16.319Z,4.17
2023-05-13T13:04:44.166Z,4.10
2023-05-13T13:07:14.788Z,4.00
2023-05-13T13:09:42.773Z,4.27
2023-05-13T13:12:10.690Z,4.70
2023-05-13T13:14:38.593Z,3.90
2023-05-13T13:17:07.190Z,3.80
2023-05-13T13:19:36.482Z,4.10
2023-05-13T13:22:04.395Z,4.00
2023-05-13T13:24:32.340Z,4.77
2023-05-13T13:27:00.279Z,3.60
2023-05-13T13:29:28.267Z,3.50
2023-05-13T13:31:56.511Z,4.03
2023-05-13T13:34:24.393Z,3.73
2023-05-13T13:36:53.736Z,3.80
2023-05-13T13:39:22.584Z,3.57
2023-05-13T13:41:50.522Z,3.93
2023-05-13T13:44:18.745Z,4.07
2023-05-13T13:46:46.688Z,3.42
2023-05-13T13:49:23.232Z,4.10
2023-05-13T13:51:53.459Z,3.25
2023-05-13T13:54:21.829Z,3.60
2023-05-13T13:56:49.972Z,4.00
2023-05-13T13:59:19.387Z,3.20
2023-05-13T14:01:47.569Z,3.00
2023-05-13T14:04:17.324Z,3.20
2023-05-13T14:06:46.362Z,3.20
2023-05-13T14:09:16.041Z,2.97
2023-05-13T14:11:43.885Z,2.80
2023-05-13T14:14:11.869Z,2.93
2023-05-13T14:16:39.780Z,2.93
2023-05-13T14:19:07.800Z,2.90
2023-05-13T14:21:36.285Z,2.70
2023-05-13T14:24:04.272Z,2.53
2023-05-13T14:26:33.520Z,3.53
2023-05-13T14:29:01.501Z,3.37
2023-05-13T14:31:29.905Z,3.03
2023-05-13T14:33:58.373Z,2.90
2023-05-13T14:36:27.659Z,3.50
2023-05-13T14:38:55.747Z,2.90
2023-05-13T14:41:25.578Z,2.30
2023-05-13T14:43:54.793Z,3.37
2023-05-13T14:46:23.164Z,2.90
2023-05-13T14:48:50.992Z,2.53
2023-05-13T14:51:18.864Z,2.50
2023-05-13T14:53:46.953Z,2.80
2023-05-13T14:56:14.829Z,2.50
2023-05-13T14:58:42.913Z,2.20
2023-05-13T15:01:12.502Z,2.67
2023-05-13T15:03:40.422Z,1.97
2023-05-13T15:06:09.125Z,2.77
2023-05-13T15:08:37.859Z,2.40
2023-05-13T15:11:06.058Z,2.67
2023-05-13T15:13:35.371Z,2.60
2023-05-13T15:16:03.713Z,4.53
2023-05-13T15:18:33.187Z,2.90
2023-05-13T15:21:01.131Z,2.43
2023-05-13T15:23:29.167Z,2.30
2023-05-13T15:25:57.240Z,2.67
2023-05-13T15:28:25.204Z,2.90
2023-05-13T15:30:53.387Z,2.50
2023-05-13T15:33:21.617Z,2.50
2023-05-13T15:35:51.054Z,2.97
2023-05-13T15:38:19.096Z,2.23
2023-05-13T15:40:47.430Z,2.33
2023-05-13T15:43:15.301Z,2.50
2023-05-13T15:45:43.328Z,2.13
2023-05-13T15:48:11.285Z,2.93
2023-05-13T15:50:39.233Z,2.63
2023-05-13T15:53:08.671Z,2.87
2023-05-13T15:55:37.496Z,2.77
2023-05-13T15:58:05.371Z,2.50
2023-05-13T16:00:33.422Z,2.00
2023-05-13T16:03:01.457Z,2.30
2023-05-13T16:05:29.851Z,2.67
2023-05-13T16:07:57.950Z,2.13
2023-05-13T16:10:27.413Z,2.43
2023-05-13T16:12:55.298Z,3.10
2023-05-13T16:15:23.234Z,2.60
2023-05-13T16:17:51.127Z,2.50
2023-05-13T16:20:18.980Z,2.40
2023-05-13T16:22:47.018Z,2.30
2023-05-13T16:25:14.838Z,2.57
2023-05-13T16:27:44.102Z,3.00
2023-05-13T16:30:12.970Z,2.50
2023-05-13T16:32:41.095Z,2.97
2023-05-13T16:35:11.703Z,2.83
2023-05-13T16:37:39.689Z,2.80
2023-05-13T16:40:08.825Z,2.40
2023-05-13T16:42:36.765Z,2.40
2023-05-13T16:45:07.308Z,2.80
2023-05-13T16:47:35.193Z,3.00
2023-05-13T16:50:03.830Z,2.60
2023-05-13T16:52:34.154Z,2.93
2023-05-13T16:55:02.107Z,2.70
2023-05-13T16:57:30.088Z,3.00
2023-05-13T16:59:57.984Z,2.70
2023-05-13T17:02:27.583Z,3.10
2023-05-13T17:04:55.474Z,2.50
2023-05-13T17:07:23.410Z,2.77
2023-05-13T17:09:51.311Z,2.87
2023-05-13T17:12:19.274Z,2.60
2023-05-13T17:14:47.325Z,2.97
2023-05-13T17:17:15.266Z,3.07
2023-05-13T17:19:44.591Z,2.80
2023-05-13T17:22:12.577Z,3.10
2023-05-13T17:24:40.708Z,2.53
2023-05-13T17:27:08.845Z,2.70
2023-05-13T17:29:36.923Z,2.80
2023-05-13T17:32:05.202Z,2.87
2023-05-13T17:34:33.048Z,2.53
2023-05-13T17:37:02.313Z,3.10
2023-05-13T17:39:30.202Z,2.80
2023-05-13T17:41:58.011Z,3.20
2023-05-13T17:44:25.917Z,3.07
2023-05-13T17:46:53.808Z,3.00
2023-05-13T17:49:21.680Z,3.40
2023-05-13T17:51:49.623Z,3.47
2023-05-13T17:54:18.925Z,3.53
2023-05-13T17:56:46.754Z,3.53
2023-05-13T17:59:14.616Z,3.17
2023-05-13T18:01:43.733Z,4.00
2023-05-13T18:04:11.612Z,4.80
2023-05-13T18:06:39.558Z,5.33
2023-05-13T18:09:07.440Z,3.07
2023-05-13T18:11:39.405Z,3.27
2023-05-13T18:14:07.981Z,2.53
2023-05-13T18:16:35.959Z,2.90
2023-05-13T18:19:04.041Z,2.57
2023-05-13T18:21:31.946Z,2.80
2023-05-13T18:23:59.957Z,3.47
2023-05-13T18:26:27.972Z,3.17
2023-05-13T18:28:57.154Z,3.20
2023-05-13T18:31:26.062Z,2.90
2023-05-13T18:33:54.067Z,2.87
2023-05-13T18:36:21.874Z,2.63
2023-05-13T18:38:49.901Z,3.00
2023-05-13T18:41:18.128Z,3.20
2023-05-13T18:43:46.144Z,3.40
2023-05-13T18:46:15.560Z,3.17
2023-05-13T18:48:43.497Z,3.23
2023-05-13T18:51:11.585Z,3.33
2023-05-13T18:53:39.655Z,3.50
2023-05-13T18:56:07.584Z,3.30
2023-05-13T18:58:35.513Z,3.27
2023-05-13T19:01:03.741Z,2.87
2023-05-13T19:03:33.095Z,3.37
2023-05-13T19:06:01.056Z,3.77
2023-05-13T19:08:28.947Z,3.20
2023-05-13T19:10:57.589Z,2.83
2023-05-13T19:13:30.688Z,3.50
2023-05-13T19:16:07.747Z,3.27
2023-05-13T19:18:37.020Z,2.90
2023-05-13T19:21:05.013Z,3.00
2023-05-13T19:23:33.097Z,2.67
2023-05-13T19:26:01.149Z,3.37
2023-05-13T19:28:29.579Z,2.87
2023-05-13T19:30:57.532Z,3.10
2023-05-13T19:33:25.425Z,2.70
2023-05-13T19:35:54.655Z,3.40
2023-05-13T19:38:22.769Z,3.13
2023-05-13T19:40:53.890Z,3.40
2023-05-13T19:43:21.843Z,3.53
2023-05-13T19:45:49.925Z,3.43
2023-05-13T19:48:17.804Z,3.80
2023-05-13T19:50:45.630Z,4.70
2023-05-13T19:53:15.111Z,3.30
2023-05-13T19:55:42.957Z,3.50
2023-05-13T19:58:10.764Z,3.13
2023-05-13T20:00:38.683Z,3.23
2023-05-13T20:03:06.672Z,3.23
2023-05-13T20:05:34.687Z,3.20
2023-05-13T20:08:02.570Z,3.00
2023-05-13T20:10:31.969Z,3.33
2023-05-13T20:13:01.694Z,3.07
2023-05-13T20:15:29.811Z,3.03
2023-05-13T20:17:57.846Z,3.00
2023-05-13T20:20:25.844Z,2.60
2023-05-13T20:22:53.878Z,2.93
2023-05-13T20:25:21.761Z,3.17
2023-05-13T20:27:51.338Z,3.20
2023-05-13T20:30:21.017Z,2.63
2023-05-13T20:32:49.350Z,2.13
2023-05-13T20:35:17.347Z,2.20
2023-05-13T20:37:45.230Z,2.07
2023-05-13T20:40:13.673Z,2.70
2023-05-13T20:42:41.522Z,2.43
2023-05-13T20:45:11.551Z,2.40
2023-05-13T20:47:39.396Z,2.50
2023-05-13T20:50:08.435Z,2.70
2023-05-13T20:52:36.462Z,2.93
2023-05-13T20:55:04.485Z,4.07
2023-05-13T20:57:32.374Z,3.87
2023-05-13T21:00:00.329Z,4.40
2023-05-13T21:02:29.661Z,3.70
2023-05-13T21:04:57.640Z,2.87
2023-05-13T21:07:25.577Z,4.13
2023-05-13T21:09:53.428Z,3.93
2023-05-13T21:12:21.272Z,3.37
2023-05-13T21:14:49.172Z,3.20
2023-05-13T21:17:21.270Z,3.00
2023-05-13T21:19:50.761Z,3.00
2023-05-13T21:22:18.904Z,3.30
2023-05-13T21:24:47.142Z,2.73
2023-05-13T21:27:15.034Z,2.83
2023-05-13T21:29:42.932Z,3.10
2023-05-13T21:32:12.055Z,3.40
2023-05-13T21:34:39.975Z,2.20
2023-05-13T21:37:09.228Z,2.17
2023-05-13T21:39:37.103Z,3.17
2023-05-13T21:42:05.512Z,2.10
2023-05-13T21:44:33.334Z,2.83
2023-05-13T21:47:01.198Z,2.00
2023-05-13T21:49:29.095Z,3.00
2023-05-13T21:51:57.006Z,2.10
2023-05-13T21:54:26.294Z,2.70
2023-05-13T21:56:54.304Z,2.57
2023-05-13T21:59:22.167Z,2.67
2023-05-13T22:01:49.994Z,2.40
2023-05-13T22:04:17.985Z,2.87
2023-05-13T22:06:46.002Z,2.57
2023-05-13T22:09:13.894Z,2.73
2023-05-13T22:11:43.127Z,2.83
2023-05-13T22:14:10.946Z,3.10
2023-05-13T22:16:38.947Z,3.30
2023-05-13T22:19:06.953Z,3.00
2023-05-13T22:21:34.875Z,3.10
2023-05-13T22:24:04.932Z,3.50
2023-05-13T22:26:32.831Z,3.63
2023-05-13T22:29:02.073Z,4.20
2023-05-13T22:31:30.029Z,6.53
2023-05-13T22:33:57.974Z,7.03
2023-05-13T22:36:25.808Z,5.80
2023-05-13T22:38:53.853Z,6.60
2023-05-13T22:41:23.802Z,4.10
2023-05-13T22:43:51.705Z,2.67
2023-05-13T22:46:21.092Z,2.30
2023-05-13T22:48:48.922Z,2.50
2023-05-13T22:51:16.752Z,2.07
2023-05-13T22:53:44.617Z,2.40
2023-05-13T22:56:12.441Z,2.07
2023-05-13T22:58:40.358Z,2.10
2023-05-13T23:01:08.271Z,2.57
2023-05-13T23:03:37.561Z,2.90
2023-05-13T23:06:05.680Z,3.10
2023-05-13T23:08:33.562Z,2.40
2023-05-13T23:11:01.383Z,2.20
2023-05-13T23:13:29.301Z,3.23
2023-05-13T23:15:57.258Z,2.47
2023-05-13T23:18:25.692Z,2.63
2023-05-13T23:20:56.156Z,2.77
2023-05-13T23:23:24.602Z,2.70
2023-05-13T23:25:52.547Z,3.23
2023-05-13T23:28:20.508Z,3.80
2023-05-13T23:30:48.400Z,3.83
2023-05-13T23:33:16.428Z,3.37
2023-05-13T23:35:44.246Z,2.83
2023-05-13T23:38:13.502Z,3.47
2023-05-13T23:40:41.361Z,3.47
2023-05-13T23:43:09.224Z,3.10
2023-05-13T23:45:37.226Z,3.23
2023-05-13T23:48:05.525Z,3.40
2023-05-13T23:50:33.704Z,3.80
2023-05-13T23:53:01.591Z,3.40
2023-05-13T23:55:30.793Z,3.67
2023-05-13T23:57:58.650Z,2.97
